Time;durP1;ratioP1;P1;durP2;ratioP2;P2;SDS_P1;SDS_P2;PMS_P1;PMS_P2;Temp;Humidity;BMP_temperature;BMP_pressure;BME280_temperature;BME280_humidity;BME280_pressure;Samples;Min_cycle;Max_cycle;Signal;HPM_P1;HPM_P2
2023/06/12 00:00:42;;;;;;;3.58;1.17;;;17.30;99.90;;;;;;5071676;28;20123;-84
2023/06/12 00:03:32;;;;;;;1.70;0.93;;;17.20;99.90;;;;;;5073772;28;20078;-84
2023/06/12 00:06:22;;;;;;;3.03;1.08;;;17.10;99.90;;;;;;5073482;28;20124;-84
2023/06/12 00:09:12;;;;;;;2.22;1.30;;;17.00;99.90;;;;;;5059179;28;20049;-85
2023/06/12 00:12:02;;;;;;;1.88;1.50;;;16.90;99.90;;;;;;5053295;28;20552;-84
2023/06/12 00:14:52;;;;;;;1.55;1.00;;;16.90;99.90;;;;;;5040313;28;20079;-84
2023/06/12 00:17:48;;;;;;;2.42;1.30;;;16.90;99.90;;;;;;5093542;28;20048;-84
2023/06/12 00:24:16;;;;;;;3.55;1.30;;;16.80;99.90;;;;;;5081814;28;20051;-85
2023/06/12 00:26:56;;;;;;;3.22;1.35;;;16.80;99.90;;;;;;5076567;28;20090;-85
2023/06/12 00:29:46;;;;;;;2.25;1.38;;;16.80;99.90;;;;;;5094522;28;20044;-86
2023/06/12 00:32:36;;;;;;;1.85;0.95;;;16.70;99.90;;;;;;5078746;28;20350;-85
2023/06/12 00:35:42;;;;;;;3.15;1.23;;;16.70;99.90;;;;;;5073624;28;20125;-83
2023/06/12 00:38:34;;;;;;;;;;;;;;;;;;;;;
2023/06/12 00:41:19;;;;;;;3.28;1.10;;;16.50;99.90;;;;;;5037700;28;20111;-84
2023/06/12 00:47:48;;;;;;;4.38;1.20;;;16.40;99.90;;;;;;5075438;28;20059;-84
2023/06/12 00:50:27;;;;;;;3.85;1.02;;;16.30;99.90;;;;;;5092127;28;20052;-84
2023/06/12 00:53:09;;;;;;;3.00;1.20;;;16.20;99.90;;;;;;5037751;28;20151;-84
2023/06/12 00:55:56;;;;;;;2.83;0.93;;;16.20;99.90;;;;;;5079252;28;20518;-84
2023/06/12 00:58:52;;;;;;;2.17;1.15;;;16.30;99.90;;;;;;5092760;28;20401;-83
2023/06/12 01:01:56;;;;;;;;;;;;;;;;;;;;;
2023/06/12 01:04:42;;;;;;;5.60;1.20;;;16.00;99.90;;;;;;5091758;28;20143;-85
2023/06/12 01:11:17;;;;;;;1.73;0.90;;;16.00;99.90;;;;;;5074838;28;20116;-87
2023/06/12 01:14:07;;;;;;;2.20;1.10;;;15.90;99.90;;;;;;5072508;28;20045;-84
2023/06/12 01:17:01;;;;;;;3.30;1.20;;;15.80;99.90;;;;;;5072037;28;20056;-84
2023/06/12 01:20:10;;;;;;;1.70;1.00;;;15.70;99.90;;;;;;5089254;28;20090;-84
2023/06/12 01:23:12;;;;;;;2.75;1.27;;;15.60;99.90;;;;;;5096539;28;20040;-83
2023/06/12 01:26:25;;;;;;;3.72;1.20;;;15.60;99.90;;;;;;5099491;28;20047;-85
2023/06/12 01:29:44;;;;;;;1.67;1.02;;;15.60;99.90;;;;;;5110526;28;20511;-85
2023/06/12 01:57:40;;;;;;;2.50;1.23;;;;;;;;;;5111655;28;20408;-84
2023/06/12 02:00:30;;;;;;;4.65;2.25;;;;;;;;;;5115742;28;20044;-84
2023/06/12 02:03:18;;;;;;;3.05;1.30;;;;;;;;;;5110731;28;20067;-85
2023/06/12 02:06:03;;;;;;;2.25;1.20;;;;;;;;;;5115224;28;20055;-85
2023/06/12 02:08:46;;;;;;;3.30;1.63;;;;;;;;;;5099294;28;20051;-85
2023/06/12 02:11:37;;;;;;;2.78;1.40;;;;;;;;;;5114308;28;20051;-86
2023/06/12 02:14:23;;;;;;;3.33;1.27;;;;;;;;;;5115183;28;20523;-84
2023/06/12 03:07:24;;;;;;;;;;;;;;;;;;5091642;28;20147;-85
2023/06/12 03:10:00;;;;;;;3.03;1.40;;;;;;;;;;5092763;28;19978;-83
2023/06/12 03:12:44;;;;;;;2.97;1.70;;;;;;;;;;5093571;28;20511;-84
2023/06/12 03:15:19;;;;;;;2.45;1.48;;;;;;;;;;5093852;28;20062;-83
2023/06/12 03:18:08;;;;;;;2.42;1.40;;;;;;;;;;5094475;28;20491;-84
2023/06/12 03:20:49;;;;;;;3.20;1.42;;;;;;;;;;5076672;28;20052;-83
2023/06/12 03:23:30;;;;;;;;;;;;;;;;;;;;;
2023/06/12 03:26:12;;;;;;;2.85;1.20;;;;;;;;;;5075585;28;20047;-83
2023/06/12 04:08:23;;;;;;;2.67;1.40;;;;;;;;;;5092995;28;20058;-84
2023/06/12 04:11:14;;;;;;;1.60;1.17;;;;;;;;;;5093208;28;20055;-85
2023/06/12 04:14:01;;;;;;;3.63;1.45;;;;;;;;;;5093431;28;20040;-84
2023/06/12 04:16:44;;;;;;;2.70;1.50;;;;;;;;;;5093055;28;20040;-84
2023/06/12 04:19:31;;;;;;;2.72;1.35;;;;;;;;;;5077858;28;20122;-83
2023/06/12 04:22:25;;;;;;;2.47;1.30;;;;;;;;;;5085190;28;20507;-85
2023/06/12 04:25:05;;;;;;;4.15;1.20;;;;;;;;;;5092892;28;20131;-84
2023/06/12 04:27:52;;;;;;;5.45;1.30;;;;;;;;;;5093382;28;20048;-84
2023/06/12 04:30:36;;;;;;;4.90;1.73;;;;;;;;;;5055444;28;20047;-87
2023/06/12 04:33:17;;;;;;;4.63;1.65;;;;;;;;;;5075167;28;20059;-85
2023/06/12 04:35:52;;;;;;;3.33;1.50;;;;;;;;;;5093065;28;20040;-85
2023/06/12 04:38:36;;;;;;;2.17;1.60;;;;;;;;;;5060287;28;20040;-88
2023/06/12 04:41:19;;;;;;;3.50;1.65;;;;;;;;;;5093026;28;20044;-87
2023/06/12 04:44:00;;;;;;;2.50;1.60;;;;;;;;;;5091495;28;20400;-86
2023/06/12 04:56:54;;;;;;;4.10;1.60;;;;;;;;;;5082742;28;20527;-83
2023/06/12 04:59:24;;;;;;;2.13;1.20;;;;;;;;;;5076665;28;20485;-82
2023/06/12 05:02:03;;;;;;;2.75;1.42;;;;;;;;;;5042736;28;20393;-85
2023/06/12 05:04:38;;;;;;;4.35;1.50;;;;;;;;;;5076445;28;20044;-85
2023/06/12 05:07:24;;;;;;;4.70;1.67;;;;;;;;;;5095378;28;20044;-84
2023/06/12 05:09:55;;;;;;;2.42;1.10;;;;;;;;;;5078745;28;20044;-82
2023/06/12 05:12:40;;;;;;;4.43;1.75;;;;;;;;;;5097029;28;20040;-82
2023/06/12 05:15:17;;;;;;;6.15;2.45;;;;;;;;;;5078275;28;20510;-83
2023/06/12 05:51:42;;;;;;;7.88;2.55;;;;;;;;;;5088630;28;20087;-89
2023/06/12 05:54:14;;;;;;;;;;;;;;;;;;5079540;28;20033;-87
2023/06/12 05:56:52;;;;;;;5.10;2.13;;;;;;;;;;5075028;28;19971;-86
2023/06/12 05:59:29;;;;;;;5.88;2.35;;;;;;;;;;5074946;28;20454;-86
2023/06/12 06:02:16;;;;;;;5.07;2.15;;;;;;;;;;5077978;28;20056;-87
2023/06/12 06:04:48;;;;;;;5.10;2.30;;;;;;;;;;5058512;28;20384;-86
2023/06/12 06:07:30;;;;;;;6.57;3.22;;;;;;;;;;5075269;28;20048;-86
2023/06/12 06:10:01;;;;;;;7.00;3.08;;;;;;;;;;5074431;28;20041;-85
2023/06/12 06:36:12;;;;;;;4.88;2.80;;;;;;;;;;5071870;28;20108;-88
2023/06/12 06:38:58;;;;;;;4.45;2.20;;;;;;;;;;5071595;28;20052;-85
2023/06/12 06:41:31;;;;;;;5.07;2.42;;;;;;;;;;5039295;28;20106;-88
2023/06/12 06:44:19;;;;;;;4.63;2.30;;;;;;;;;;5074402;28;20369;-86
2023/06/12 06:46:56;;;;;;;4.20;2.55;;;;;;;;;;5048373;28;20440;-86
2023/06/12 06:49:29;;;;;;;5.40;2.20;;;;;;;;;;5054496;28;20588;-89
2023/06/12 06:52:17;;;;;;;8.43;2.58;;;;;;;;;;5054452;28;20164;-88
2023/06/12 06:55:07;;;;;;;5.80;2.63;;;;;;;;;;5054488;28;20547;-88
2023/06/12 07:08:03;;;;;;;4.30;2.13;;;;;;;;;;5059075;28;20062;-86
2023/06/12 07:10:43;;;;;;;3.75;2.30;;;;;;;;;;5068816;28;20049;-86
2023/06/12 07:13:32;;;;;;;9.68;2.50;;;;;;;;;;5076231;28;20071;-88
2023/06/12 07:16:16;;;;;;;4.97;2.08;;;;;;;;;;5074923;28;20064;-87
2023/06/12 07:19:08;;;;;;;;;;;;;;;;;;;;;
2023/06/12 07:21:43;;;;;;;3.67;1.95;;;;;;;;;;5056268;28;20120;-88
2023/06/12 07:24:23;;;;;;;5.95;2.35;;;;;;;;;;5092866;28;20089;-88
2023/06/12 08:07:27;;;;;;;4.63;2.10;;;;;;;;;;5093468;28;20051;-84
2023/06/12 08:10:00;;;;;;;5.00;1.98;;;;;;;;;;5075197;28;20053;-84
2023/06/12 08:12:42;;;;;;;;;;;;;;;;;;5073539;28;20053;-87
2023/06/12 08:15:17;;;;;;;9.75;2.90;;;;;;;;;;5089779;28;19943;-84
2023/06/12 08:17:58;;;;;;;2.58;1.42;;;;;;;;;;5093466;28;20057;-83
2023/06/12 08:20:40;;;;;;;2.70;1.55;;;;;;;;;;5076687;28;20128;-85
2023/06/12 08:23:25;;;;;;;4.72;2.10;;;;;;;;;;5093211;28;20072;-85
2023/06/12 08:26:26;;;;;;;4.07;1.80;;;;;;;;;;5089958;28;20399;-86
2023/06/12 08:29:12;;;;;;;4.95;2.10;;;;;;;;;;5093094;28;20105;-84
2023/06/12 08:31:51;;;;;;;3.58;1.63;;;;;;;;;;5075405;28;20057;-85
2023/06/12 08:34:29;;;;;;;;;;;;;;;;;;5093565;28;20119;-84
2023/06/12 08:37:01;;;;;;;4.40;1.85;;;;;;;;;;5092168;28;19924;-84
2023/06/12 08:39:33;;;;;;;4.18;1.63;;;;;;;;;;5092527;28;20078;-84
2023/06/12 08:42:17;;;;;;;6.55;2.28;;;;;;;;;;5093119;28;20066;-85
2023/06/12 08:44:56;;;;;;;3.42;2.13;;;;;;;;;;5040844;28;20110;-84
2023/06/12 09:07:48;;;;;;;3.05;1.90;;;;;;;;;;5072981;28;20397;-85
2023/06/12 09:10:31;;;;;;;4.25;1.77;;;;;;;;;;5037678;28;20100;-86
2023/06/12 09:13:18;;;;;;;4.93;1.77;;;;;;;;;;5052526;28;20037;-85
2023/06/12 09:16:02;;;;;;;3.53;2.00;;;;;;;;;;5052535;28;20490;-85
2023/06/12 09:18:57;;;;;;;2.95;1.88;;;;;;;;;;5032675;28;20056;-86
2023/06/12 09:21:30;;;;;;;3.42;1.73;;;;;;;;;;5018452;28;20056;-86
2023/06/12 09:24:10;;;;;;;5.47;2.53;;;;;;;;;;5050732;28;20494;-85
2023/06/12 09:53:52;;;;;;;4.55;2.85;;;;;;;;;;4966588;28;20559;-86
2023/06/12 09:56:29;;;;;;;4.45;2.53;;;;;;;;;;4958823;28;20460;-85
2023/06/12 09:59:34;;;;;;;3.85;2.53;;;;;;;;;;4974573;28;20074;-86
2023/06/12 10:02:22;;;;;;;3.72;2.38;;;;;;;;;;4916715;29;20060;-84
2023/06/12 10:05:13;;;;;;;4.30;2.35;;;;;;;;;;4917170;29;20055;-85
2023/06/12 10:07:46;;;;;;;5.18;2.22;;;;;;;;;;5007143;28;20415;-85
2023/06/12 10:10:26;;;;;;;3.78;2.40;;;;;;;;;;5028301;28;20064;-83
2023/06/12 10:12:59;;;;;;;4.07;2.72;;;;;;;;;;5031872;28;20053;-86
2023/06/12 10:15:34;;;;;;;3.28;2.53;;;;;;;;;;4984641;28;20175;-86
2023/06/12 10:18:13;;;;;;;4.57;2.17;;;;;;;;;;5037913;28;20046;-84
2023/06/12 10:20:57;;;;;;;6.13;2.88;;;;;;;;;;5033367;28;20043;-86
2023/06/12 10:23:29;;;;;;;2.80;1.90;;;;;;;;;;5016663;28;20116;-84
2023/06/12 10:26:18;;;;;;;5.57;2.60;;;;;;;;;;5033188;28;20184;-87
2023/06/12 10:29:06;;;;;;;3.67;2.35;;;;;;;;;;5040390;28;20037;-88
2023/06/12 10:31:53;;;;;;;3.05;2.13;;;;;;;;;;5054623;28;20444;-89
2023/06/12 10:34:56;;;;;;;3.90;2.20;;;;;;;;;;5044658;28;20604;-87
2023/06/12 10:37:51;;;;;;;2.28;1.55;;;;;;;;;;5054534;28;20055;-86
2023/06/12 10:40:38;;;;;;;3.45;1.90;;;;;;;;;;5116563;28;20135;-86
2023/06/12 10:43:29;;;;;;;4.75;2.05;;;;;;;;;;5113966;28;20036;-87
2023/06/12 10:46:13;;;;;;;4.13;1.75;;;;;;;;;;5115539;28;20442;-86
2023/06/12 10:48:57;;;;;;;;;;;;;;;;;;;;;
2023/06/12 10:51:42;;;;;;;6.22;2.10;;;;;;;;;;5115113;28;20544;-85
2023/06/12 11:07:50;;;;;;;4.68;2.67;;;;;;;;;;5096225;28;20422;-86
2023/06/12 11:10:37;;;;;;;3.65;2.17;;;;;;;;;;5089048;28;20102;-87
2023/06/12 11:13:18;;;;;;;2.70;1.88;;;;;;;;;;5081904;28;20032;-86
2023/06/12 11:16:02;;;;;;;5.47;2.25;;;;;;;;;;5094142;28;20040;-85
2023/06/12 11:18:43;;;;;;;2.75;1.67;;;;;;;;;;5080879;28;20044;-86
2023/06/12 11:21:22;;;;;;;;;;;;;;;;;;;;;
2023/06/12 11:24:20;;;;;;;3.05;2.53;;;;;;;;;;5075485;28;20036;-83
2023/06/12 11:47:25;;;;;;;3.30;2.17;;;31.30;77.60;;;;;;5096367;28;20043;-91
2023/06/12 11:50:13;;;;;;;3.75;2.22;;;31.50;77.90;;;;;;5093121;28;20079;-90
2023/06/12 11:52:55;;;;;;;4.78;2.53;;;31.50;79.30;;;;;;5058785;28;20048;-93
2023/06/12 11:55:40;;;;;;;4.88;2.38;;;31.60;77.70;;;;;;5078514;28;20052;-92
2023/06/12 11:58:47;;;;;;;3.10;2.20;;;31.50;73.10;;;;;;5097491;28;20075;-91
2023/06/12 12:01:27;;;;;;;3.15;2.15;;;30.90;73.60;;;;;;5059378;28;20086;-88
2023/06/12 12:04:05;;;;;;;3.40;2.55;;;31.00;74.20;;;;;;5076162;28;20054;-88
2023/06/12 12:07:00;;;;;;;3.75;2.15;;;31.30;74.30;;;;;;5096325;28;20044;-95
2023/06/12 12:09:44;;;;;;;2.22;2.03;;;31.50;76.90;;;;;;5086180;28;20075;-94
2023/06/12 12:12:27;;;;;;;2.80;2.17;;;31.80;74.30;;;;;;5095156;28;20048;-91
2023/06/12 12:15:33;;;;;;;3.47;2.72;;;31.60;74.40;;;;;;5094910;28;20044;-93
2023/06/12 12:18:02;;;;;;;3.28;2.70;;;31.80;69.90;;;;;;5062225;28;20077;-85
2023/06/12 12:28:29;;;;;;;3.88;2.30;;;31.90;71.80;;;;;;5094564;28;20495;-91
2023/06/12 12:31:02;;;;;;;4.32;2.38;;;32.00;73.70;;;;;;5093894;28;20119;-87
2023/06/12 12:33:41;;;;;;;5.43;2.45;;;32.00;72.20;;;;;;5097625;28;20044;-88
2023/06/12 12:36:09;;;;;;;2.85;1.92;;;31.90;72.10;;;;;;5097240;28;20099;-87
2023/06/12 12:38:35;;;;;;;6.30;2.80;;;31.90;72.70;;;;;;5094920;28;20044;-89
2023/06/12 12:41:07;;;;;;;3.63;2.67;;;32.00;70.10;;;;;;5057543;28;20056;-90
2023/06/12 12:43:35;;;;;;;4.82;2.45;;;32.10;70.70;;;;;;5042153;28;20119;-88
2023/06/12 12:46:06;;;;;;;3.58;2.13;;;31.80;69.90;;;;;;5073330;28;20048;-92
